createdAt,value
2022-09-25T00:00:14.082Z,100.00
2022-09-25T00:02:43.599Z,100.00
2022-09-25T00:05:12.918Z,100.00
2022-09-25T00:07:42.331Z,100.00
2022-09-25T00:10:11.613Z,100.00
2022-09-25T00:12:42.404Z,100.00
2022-09-25T00:15:11.985Z,100.00
2022-09-25T00:17:41.331Z,100.00
2022-09-25T00:20:10.762Z,100.00
2022-09-25T00:22:40.069Z,100.00
2022-09-25T00:25:14.849Z,100.00
2022-09-25T00:27:45.722Z,100.00
2022-09-25T00:30:16.107Z,100.00
2022-09-25T00:32:47.117Z,100.00
2022-09-25T00:35:16.740Z,100.00
2022-09-25T00:37:47.761Z,100.00
2022-09-25T00:40:17.367Z,100.00
2022-09-25T00:42:46.736Z,100.00
2022-09-25T00:45:21.236Z,100.00
2022-09-25T00:48:01.827Z,100.00
2022-09-25T00:50:52.296Z,100.00
2022-09-25T00:53:33.224Z,100.00
2022-09-25T00:56:04.390Z,100.00
2022-09-25T00:58:35.155Z,100.00
2022-09-25T01:01:04.611Z,100.00
2022-09-25T01:03:34.195Z,100.00
2022-09-25T01:06:03.675Z,100.00
2022-09-25T01:08:33.735Z,100.00
2022-09-25T01:11:03.369Z,100.00
2022-09-25T01:13:36.213Z,100.00
2022-09-25T01:16:20.337Z,100.00
2022-09-25T01:19:09.297Z,100.00
2022-09-25T01:21:50.905Z,100.00
2022-09-25T01:24:35.198Z,100.00
2022-09-25T01:27:23.053Z,100.00
2022-09-25T01:30:07.348Z,100.00
2022-09-25T01:32:45.990Z,100.00
2022-09-25T01:35:31.440Z,100.00
2022-09-25T01:38:19.329Z,100.00
2022-09-25T01:41:03.514Z,100.00
2022-09-25T01:43:45.084Z,100.00
2022-09-25T01:46:19.828Z,100.00
2022-09-25T01:48:52.363Z,100.00
2022-09-25T01:51:28.880Z,100.00
2022-09-25T01:54:00.727Z,100.00
2022-09-25T01:56:38.933Z,100.00
2022-09-25T01:59:16.972Z,100.00
2022-09-25T02:01:47.697Z,100.00
2022-09-25T02:04:21.889Z,100.00
2022-09-25T02:06:52.634Z,100.00
2022-09-25T02:09:25.252Z,100.00
2022-09-25T02:11:54.775Z,100.00
2022-09-25T02:14:27.288Z,100.00
2022-09-25T02:16:57.419Z,100.00
2022-09-25T02:19:45.509Z,100.00
2022-09-25T02:22:19.402Z,100.00
2022-09-25T02:24:58.951Z,100.00
2022-09-25T02:27:29.650Z,100.00
2022-09-25T02:30:01.250Z,100.00
2022-09-25T02:32:32.506Z,100.00
2022-09-25T02:35:03.564Z,100.00
2022-09-25T02:37:32.888Z,100.00
2022-09-25T02:40:03.104Z,100.00
2022-09-25T02:42:53.340Z,100.00
2022-09-25T02:45:40.894Z,100.00
2022-09-25T02:48:31.737Z,100.00
2022-09-25T02:51:06.929Z,100.00
2022-09-25T02:53:54.652Z,100.00
2022-09-25T02:56:39.332Z,100.00
2022-09-25T02:59:11.263Z,100.00
2022-09-25T03:01:42.029Z,100.00
2022-09-25T03:04:11.744Z,100.00
2022-09-25T03:06:41.383Z,100.00
2022-09-25T03:09:11.604Z,100.00
2022-09-25T03:11:42.655Z,100.00
2022-09-25T03:14:12.511Z,100.00
2022-09-25T03:16:50.042Z,100.00
2022-09-25T03:19:23.388Z,100.00
2022-09-25T03:21:54.250Z,100.00
2022-09-25T03:24:23.492Z,100.00
2022-09-25T03:26:54.010Z,100.00
2022-09-25T03:29:23.460Z,100.00
2022-09-25T03:31:52.868Z,100.00
2022-09-25T03:34:22.810Z,100.00
2022-09-25T03:36:52.165Z,100.00
2022-09-25T03:39:21.468Z,100.00
2022-09-25T03:41:50.815Z,100.00
2022-09-25T03:44:20.093Z,100.00
2022-09-25T03:46:49.363Z,100.00
2022-09-25T03:49:18.693Z,100.00
2022-09-25T03:51:48.012Z,100.00
2022-09-25T03:54:17.380Z,100.00
2022-09-25T03:56:46.666Z,100.00
2022-09-25T03:59:16.971Z,100.00
2022-09-25T04:01:47.668Z,100.00
2022-09-25T04:04:17.025Z,100.00
2022-09-25T04:06:46.313Z,100.00
2022-09-25T04:09:15.564Z,100.00
2022-09-25T04:11:45.221Z,100.00
2022-09-25T04:14:15.084Z,100.00
2022-09-25T04:16:45.455Z,100.00
2022-09-25T04:19:15.711Z,100.00
2022-09-25T04:21:44.931Z,100.00
2022-09-25T04:24:33.612Z,100.00
2022-09-25T04:27:02.857Z,100.00
2022-09-25T04:29:32.235Z,100.00
2022-09-25T04:32:19.922Z,100.00
2022-09-25T04:34:49.161Z,100.00
2022-09-25T04:37:18.548Z,100.00
2022-09-25T04:39:47.749Z,100.00
2022-09-25T04:42:17.167Z,100.00
2022-09-25T04:44:46.448Z,100.00
2022-09-25T04:47:17.439Z,100.00
2022-09-25T04:49:46.736Z,100.00
2022-09-25T04:52:17.733Z,100.00
2022-09-25T04:54:47.789Z,100.00
2022-09-25T04:57:38.788Z,100.00
2022-09-25T04:59:51.009Z,100.00
2022-09-25T05:02:20.353Z,100.00
2022-09-25T05:04:49.653Z,100.00
2022-09-25T05:07:19.060Z,100.00
2022-09-25T05:09:48.241Z,100.00
2022-09-25T05:12:17.619Z,100.00
2022-09-25T05:14:46.835Z,100.00
2022-09-25T05:17:16.338Z,100.00
2022-09-25T05:19:45.558Z,100.00
2022-09-25T05:22:14.800Z,100.00
2022-09-25T05:24:44.048Z,100.00
2022-09-25T05:27:13.463Z,100.00
2022-09-25T05:29:42.819Z,100.00
2022-09-25T05:32:12.094Z,100.00
2022-09-25T05:34:41.373Z,100.00
2022-09-25T05:37:10.602Z,100.00
2022-09-25T05:39:39.896Z,100.00
2022-09-25T05:42:09.256Z,100.00
2022-09-25T05:44:40.197Z,100.00
2022-09-25T05:47:09.531Z,100.00
2022-09-25T05:49:38.778Z,100.00
2022-09-25T05:52:08.072Z,100.00
2022-09-25T05:54:37.293Z,100.00
2022-09-25T05:57:06.607Z,100.00
2022-09-25T05:59:35.955Z,100.00
2022-09-25T06:02:05.252Z,100.00
2022-09-25T06:04:34.686Z,100.00
2022-09-25T06:07:03.934Z,100.00
2022-09-25T06:09:33.154Z,100.00
2022-09-25T06:12:02.932Z,100.00
2022-09-25T06:14:33.117Z,100.00
2022-09-25T06:17:03.085Z,100.00
2022-09-25T06:19:32.472Z,100.00
2022-09-25T06:22:01.776Z,100.00
2022-09-25T06:24:31.126Z,100.00
2022-09-25T06:27:00.396Z,100.00
2022-09-25T06:29:29.719Z,100.00
2022-09-25T06:31:58.963Z,100.00
2022-09-25T06:34:30.028Z,100.00
2022-09-25T06:37:01.409Z,100.00
2022-09-25T06:39:33.858Z,100.00
2022-09-25T06:42:03.143Z,100.00
2022-09-25T06:44:32.341Z,100.00
2022-09-25T06:47:01.668Z,100.00
2022-09-25T06:49:31.002Z,100.00
2022-09-25T06:52:00.335Z,100.00
2022-09-25T06:54:31.746Z,100.00
2022-09-25T06:57:00.978Z,100.00
2022-09-25T06:59:30.323Z,100.00
2022-09-25T07:02:01.332Z,100.00
2022-09-25T07:04:30.729Z,100.00
2022-09-25T07:07:01.871Z,100.00
2022-09-25T07:09:31.135Z,100.00
2022-09-25T07:12:00.395Z,100.00
2022-09-25T07:14:29.709Z,100.00
2022-09-25T07:17:00.660Z,100.00
2022-09-25T07:19:29.933Z,100.00
2022-09-25T07:22:01.230Z,100.00
2022-09-25T07:24:30.473Z,100.00
2022-09-25T07:26:59.797Z,100.00
2022-09-25T07:29:29.679Z,100.00
2022-09-25T07:31:59.989Z,100.00
2022-09-25T07:34:29.466Z,100.00
2022-09-25T07:37:00.463Z,100.00
2022-09-25T07:39:29.750Z,100.00
2022-09-25T07:41:59.010Z,100.00
2022-09-25T07:44:30.309Z,100.00
2022-09-25T07:47:00.863Z,100.00
2022-09-25T07:49:30.979Z,100.00
2022-09-25T07:52:00.381Z,100.00
2022-09-25T07:54:29.885Z,100.00
2022-09-25T07:56:59.640Z,100.00
2022-09-25T07:59:28.942Z,100.00
2022-09-25T08:01:58.487Z,100.00
2022-09-25T08:04:27.695Z,100.00
2022-09-25T08:06:59.051Z,100.00
2022-09-25T08:09:28.280Z,100.00
2022-09-25T08:11:57.606Z,100.00
2022-09-25T08:14:27.295Z,100.00
2022-09-25T08:16:57.438Z,100.00
2022-09-25T08:19:27.934Z,100.00
2022-09-25T08:21:57.254Z,100.00
2022-09-25T08:24:26.504Z,100.00
2022-09-25T08:26:55.931Z,100.00
2022-09-25T08:29:25.287Z,100.00
2022-09-25T08:31:54.528Z,98.28
2022-09-25T08:36:55.095Z,96.68
2022-09-25T08:39:24.297Z,97.36
2022-09-25T08:41:55.556Z,96.49
2022-09-25T08:44:27.657Z,93.92
2022-09-25T08:47:20.729Z,92.26
2022-09-25T08:50:08.351Z,83.74
2022-09-25T08:52:38.501Z,79.49
2022-09-25T08:55:13.436Z,78.96
2022-09-25T08:57:44.110Z,79.55
2022-09-25T09:00:23.649Z,75.37
2022-09-25T09:02:58.726Z,71.07
2022-09-25T09:05:34.843Z,64.40
2022-09-25T09:08:09.007Z,53.81
2022-09-25T09:10:53.023Z,52.19
2022-09-25T09:13:52.529Z,55.25
2022-09-25T09:16:36.997Z,54.03
2022-09-25T09:19:07.551Z,57.00
2022-09-25T09:21:38.609Z,64.88
2022-09-25T09:24:11.047Z,64.88
2022-09-25T09:26:56.358Z,66.15
2022-09-25T09:29:29.118Z,62.99
2022-09-25T09:32:19.657Z,53.95
2022-09-25T09:35:10.266Z,50.35
2022-09-25T09:38:07.488Z,51.14
2022-09-25T09:41:02.581Z,51.12
2022-09-25T09:43:42.706Z,51.69
2022-09-25T09:46:26.968Z,50.19
2022-09-25T09:49:02.239Z,49.40
2022-09-25T09:51:38.067Z,46.97
2022-09-25T09:54:28.892Z,44.43
2022-09-25T09:56:59.112Z,47.01
2022-09-25T09:59:34.391Z,50.05
2022-09-25T10:02:23.332Z,47.92
2022-09-25T10:04:53.735Z,47.42
2022-09-25T10:07:24.208Z,50.43
2022-09-25T10:09:55.766Z,49.61
2022-09-25T10:12:30.656Z,49.55
2022-09-25T10:15:02.995Z,49.82
2022-09-25T10:17:32.283Z,52.92
2022-09-25T10:20:04.776Z,55.35
2022-09-25T10:22:37.147Z,56.13
2022-09-25T10:25:07.243Z,54.98
2022-09-25T10:27:40.735Z,53.96
2022-09-25T10:30:20.162Z,56.14
2022-09-25T10:33:05.656Z,56.14
2022-09-25T10:35:47.241Z,56.59
2022-09-25T10:38:34.266Z,57.03
2022-09-25T10:41:09.416Z,54.79
2022-09-25T10:43:56.143Z,56.31
2022-09-25T10:46:54.998Z,50.09
2022-09-25T10:49:46.567Z,46.48
2022-09-25T10:52:19.785Z,42.40
2022-09-25T10:54:50.929Z,39.01
2022-09-25T10:57:33.952Z,37.26
2022-09-25T11:00:05.383Z,37.94
2022-09-25T11:02:40.587Z,39.12
2022-09-25T11:05:18.211Z,37.75
2022-09-25T11:07:54.968Z,37.30
2022-09-25T11:10:27.671Z,37.90
2022-09-25T11:12:58.079Z,39.63
2022-09-25T11:15:28.353Z,38.48
2022-09-25T11:18:00.032Z,36.81
2022-09-25T11:20:31.780Z,37.57
2022-09-25T11:23:07.281Z,42.55
2022-09-25T11:25:53.805Z,44.75
2022-09-25T11:28:48.842Z,42.46
2022-09-25T11:31:39.519Z,39.62
2022-09-25T11:34:14.952Z,40.35
2022-09-25T11:36:47.037Z,36.39
2022-09-25T11:39:49.500Z,37.17
2022-09-25T11:42:22.311Z,33.24
2022-09-25T11:45:10.296Z,37.17
2022-09-25T11:47:49.453Z,41.08
2022-09-25T11:50:20.119Z,40.12
2022-09-25T11:52:59.262Z,41.34
2022-09-25T11:55:43.220Z,42.34
2022-09-25T11:58:19.325Z,43.26
2022-09-25T12:00:57.441Z,47.36
2022-09-25T12:03:35.746Z,51.30
2022-09-25T12:06:12.798Z,53.77
2022-09-25T12:08:57.266Z,53.75
2022-09-25T12:11:45.780Z,52.30
2022-09-25T12:14:31.694Z,49.31
2022-09-25T12:17:33.405Z,43.64
2022-09-25T12:20:25.119Z,45.78
2022-09-25T12:23:09.199Z,45.78
2022-09-25T12:26:01.201Z,50.29
2022-09-25T12:29:07.314Z,48.45
2022-09-25T12:31:52.734Z,52.92
2022-09-25T12:34:27.639Z,56.36
2022-09-25T12:37:03.148Z,57.89
2022-09-25T12:39:44.613Z,61.41
2022-09-25T12:42:20.930Z,61.82
2022-09-25T12:44:58.873Z,65.90
2022-09-25T12:47:45.994Z,70.23
2022-09-25T12:50:17.848Z,69.49
2022-09-25T12:52:57.563Z,70.86
2022-09-25T12:55:42.134Z,70.17
2022-09-25T12:58:40.343Z,72.69
2022-09-25T13:01:21.679Z,70.29
2022-09-25T13:04:03.248Z,73.34
2022-09-25T13:06:50.489Z,72.42
2022-09-25T13:09:25.866Z,69.77
2022-09-25T13:12:00.967Z,62.53
2022-09-25T13:14:42.834Z,61.28
2022-09-25T13:17:16.037Z,57.76
2022-09-25T13:19:46.740Z,62.25
2022-09-25T13:22:21.097Z,63.04
2022-09-25T13:24:59.290Z,61.03
2022-09-25T13:27:37.361Z,63.51
2022-09-25T13:30:03.427Z,64.04
2022-09-25T13:32:38.412Z,60.97
2022-09-25T13:35:10.923Z,61.64
2022-09-25T13:37:39.549Z,62.66
2022-09-25T13:40:39.256Z,63.15
2022-09-25T13:43:24.103Z,62.35
2022-09-25T13:46:21.641Z,63.86
2022-09-25T13:48:55.821Z,64.13
2022-09-25T13:51:28.047Z,60.85
2022-09-25T13:54:12.410Z,60.00
2022-09-25T13:56:47.180Z,57.44
2022-09-25T15:00:45.882Z,78.06
2022-09-25T15:03:16.588Z,77.92
2022-09-25T15:05:50.627Z,81.11
2022-09-25T15:11:44.636Z,78.94
2022-09-25T15:14:17.031Z,77.60
2022-09-25T15:17:04.412Z,79.78
2022-09-25T15:19:37.252Z,78.28
2022-09-25T15:22:15.098Z,79.77
2022-09-25T15:24:49.854Z,79.79
2022-09-25T15:27:19.495Z,77.04
2022-09-25T15:29:49.684Z,76.47
2022-09-25T15:32:25.385Z,76.29
2022-09-25T15:35:17.539Z,77.40
2022-09-25T15:37:47.895Z,81.72
2022-09-25T15:40:29.209Z,81.72
2022-09-25T15:43:00.906Z,82.23
2022-09-25T15:45:40.517Z,80.99
2022-09-25T15:48:25.025Z,81.98
2022-09-25T15:50:54.840Z,84.23
2022-09-25T15:53:33.140Z,86.26
2022-09-25T15:56:08.716Z,86.22
2022-09-25T15:58:41.098Z,87.51
2022-09-25T16:01:30.597Z,88.20
2022-09-25T16:04:18.061Z,88.55
2022-09-25T16:06:50.240Z,88.49
2022-09-25T16:09:25.087Z,90.06
2022-09-25T16:11:55.163Z,89.79
2022-09-25T16:14:30.232Z,90.36
2022-09-25T16:17:00.257Z,90.60
2022-09-25T16:19:32.670Z,90.06
2022-09-25T16:22:14.186Z,89.64
2022-09-25T16:24:45.589Z,90.14
2022-09-25T16:27:20.641Z,91.82
2022-09-25T16:29:50.206Z,90.72
2022-09-25T16:32:21.179Z,91.00
2022-09-25T16:35:02.156Z,91.85
2022-09-25T16:37:36.388Z,91.45
2022-09-25T16:40:20.992Z,90.90
2022-09-25T16:42:51.528Z,88.88
2022-09-25T16:45:28.464Z,88.03
2022-09-25T16:47:58.763Z,89.95
2022-09-25T16:50:32.038Z,90.68
2022-09-25T16:53:03.461Z,90.82
2022-09-25T16:55:34.222Z,91.63
2022-09-25T16:58:05.222Z,92.02
2022-09-25T17:00:34.491Z,92.82
2022-09-25T17:03:04.064Z,92.94
2022-09-25T17:05:33.435Z,93.07
2022-09-25T17:08:21.069Z,93.96
2022-09-25T17:10:52.233Z,94.43
2022-09-25T17:13:24.772Z,95.42
2022-09-25T17:15:55.856Z,95.90
2022-09-25T17:18:25.137Z,96.84
2022-09-25T17:20:56.122Z,98.34
2022-09-25T17:23:26.540Z,99.42
2022-09-25T17:26:01.876Z,99.96
2022-09-25T17:28:33.271Z,99.70
2022-09-25T17:31:02.803Z,100.00
2022-09-25T17:33:32.376Z,100.00
2022-09-25T17:36:05.658Z,100.00
2022-09-25T17:38:35.125Z,100.00
2022-09-25T17:41:07.420Z,100.00
2022-09-25T17:43:37.422Z,100.00
2022-09-25T17:46:06.932Z,100.00
2022-09-25T17:48:36.596Z,100.00
2022-09-25T17:51:11.854Z,100.00
2022-09-25T17:53:41.222Z,100.00
2022-09-25T17:56:11.572Z,100.00
2022-09-25T17:58:42.515Z,100.00
2022-09-25T18:01:19.521Z,100.00
2022-09-25T18:03:53.088Z,100.00
2022-09-25T18:06:22.896Z,100.00
2022-09-25T18:08:54.365Z,100.00
2022-09-25T18:11:24.948Z,100.00
2022-09-25T18:13:57.171Z,100.00
2022-09-25T18:16:31.755Z,100.00
2022-09-25T18:19:20.865Z,100.00
2022-09-25T18:22:07.784Z,100.00
2022-09-25T18:24:37.205Z,100.00
2022-09-25T18:27:06.429Z,100.00
2022-09-25T18:29:37.398Z,100.00
2022-09-25T18:32:08.135Z,100.00
2022-09-25T18:34:37.375Z,100.00
2022-09-25T18:37:06.757Z,100.00
2022-09-25T18:39:36.100Z,100.00
2022-09-25T18:42:05.668Z,100.00
2022-09-25T18:44:41.923Z,100.00
2022-09-25T18:47:07.955Z,100.00
2022-09-25T18:49:38.039Z,100.00
2022-09-25T18:52:07.586Z,100.00
2022-09-25T18:54:36.890Z,100.00
2022-09-25T18:57:06.372Z,100.00
2022-09-25T18:59:36.263Z,100.00
2022-09-25T19:02:06.475Z,100.00
2022-09-25T19:04:36.352Z,100.00
2022-09-25T19:07:05.680Z,100.00
2022-09-25T19:09:35.209Z,100.00
2022-09-25T19:12:06.339Z,100.00
2022-09-25T19:14:36.729Z,100.00
2022-09-25T19:17:06.486Z,100.00
2022-09-25T19:19:36.324Z,100.00
2022-09-25T19:22:06.459Z,100.00
2022-09-25T19:24:38.930Z,100.00
2022-09-25T19:27:09.356Z,100.00
2022-09-25T19:29:38.672Z,100.00
2022-09-25T19:32:10.549Z,100.00
2022-09-25T19:34:40.165Z,100.00
2022-09-25T19:37:12.949Z,100.00
2022-09-25T19:40:00.326Z,100.00
2022-09-25T19:42:31.747Z,100.00
2022-09-25T19:45:01.924Z,100.00
2022-09-25T19:47:32.098Z,100.00
2022-09-25T19:50:01.396Z,100.00
2022-09-25T19:52:30.711Z,100.00
2022-09-25T19:55:00.046Z,100.00
2022-09-25T19:57:29.551Z,100.00
2022-09-25T20:00:00.453Z,100.00
2022-09-25T20:02:35.472Z,100.00
2022-09-25T20:05:05.358Z,100.00
2022-09-25T20:07:34.869Z,100.00
2022-09-25T20:10:04.645Z,100.00
2022-09-25T20:12:33.990Z,100.00
2022-09-25T20:15:03.376Z,100.00
2022-09-25T20:17:32.814Z,100.00
2022-09-25T20:20:03.042Z,100.00
2022-09-25T20:22:32.557Z,100.00
2022-09-25T20:25:01.815Z,100.00
2022-09-25T20:27:31.278Z,100.00
2022-09-25T20:30:00.570Z,100.00
2022-09-25T20:32:29.974Z,100.00
2022-09-25T20:34:59.548Z,100.00
2022-09-25T20:37:28.910Z,100.00
2022-09-25T20:39:58.659Z,100.00
2022-09-25T20:42:28.048Z,100.00
2022-09-25T20:44:57.333Z,100.00
2022-09-25T20:47:28.317Z,100.00
2022-09-25T20:49:57.799Z,100.00
2022-09-25T20:52:27.564Z,100.00
2022-09-25T20:54:56.925Z,100.00
2022-09-25T20:57:26.252Z,100.00
2022-09-25T20:59:56.910Z,100.00
2022-09-25T21:02:35.103Z,100.00
2022-09-25T21:05:08.726Z,100.00
2022-09-25T21:07:41.381Z,100.00
2022-09-25T21:10:15.003Z,100.00
2022-09-25T21:12:44.382Z,100.00
2022-09-25T21:18:08.207Z,100.00
2022-09-25T21:20:42.171Z,100.00
2022-09-25T21:23:15.665Z,100.00
2022-09-25T21:25:45.207Z,100.00
2022-09-25T21:28:15.923Z,100.00
2022-09-25T21:30:45.333Z,100.00
2022-09-25T21:33:15.607Z,100.00
2022-09-25T21:35:48.708Z,100.00
2022-09-25T21:38:17.922Z,100.00
2022-09-25T21:40:47.538Z,100.00
2022-09-25T21:43:17.438Z,100.00
2022-09-25T21:45:46.983Z,100.00
2022-09-25T21:48:16.435Z,100.00
2022-09-25T21:50:55.621Z,100.00
2022-09-25T21:53:25.582Z,100.00
2022-09-25T21:56:06.769Z,100.00
2022-09-25T21:58:37.169Z,100.00
2022-09-25T22:01:08.306Z,100.00
2022-09-25T22:03:42.617Z,100.00
2022-09-25T22:06:14.314Z,100.00
2022-09-25T22:08:45.749Z,100.00
2022-09-25T22:11:15.481Z,100.00
2022-09-25T22:13:46.201Z,100.00
2022-09-25T22:16:21.318Z,100.00
2022-09-25T22:18:53.778Z,100.00
2022-09-25T22:21:26.245Z,100.00
2022-09-25T22:23:56.012Z,100.00
2022-09-25T22:26:26.328Z,100.00
2022-09-25T22:28:56.669Z,100.00
2022-09-25T22:31:28.629Z,100.00
2022-09-25T22:34:04.001Z,100.00
2022-09-25T22:36:35.793Z,100.00
2022-09-25T22:39:06.366Z,100.00
2022-09-25T22:41:35.764Z,100.00
2022-09-25T22:44:05.223Z,100.00
2022-09-25T22:46:34.715Z,100.00
2022-09-25T22:49:04.390Z,100.00
2022-09-25T22:51:33.623Z,100.00
2022-09-25T22:54:02.955Z,100.00
2022-09-25T22:56:34.298Z,100.00
2022-09-25T22:59:06.699Z,100.00
2022-09-25T23:01:45.461Z,100.00
2022-09-25T23:04:18.441Z,100.00
2022-09-25T23:06:48.715Z,100.00
2022-09-25T23:09:20.585Z,100.00
2022-09-25T23:11:50.231Z,100.00
2022-09-25T23:14:22.618Z,100.00
2022-09-25T23:16:53.664Z,100.00
2022-09-25T23:19:23.769Z,100.00
2022-09-25T23:21:54.010Z,100.00
2022-09-25T23:24:24.368Z,100.00
2022-09-25T23:26:54.703Z,100.00
2022-09-25T23:29:24.312Z,100.00
2022-09-25T23:31:53.703Z,100.00
2022-09-25T23:34:23.119Z,100.00
2022-09-25T23:36:52.367Z,100.00
2022-09-25T23:39:21.974Z,100.00
2022-09-25T23:41:51.369Z,100.00
2022-09-25T23:44:20.582Z,100.00
2022-09-25T23:46:49.858Z,100.00
2022-09-25T23:49:19.155Z,100.00
2022-09-25T23:51:49.749Z,100.00
2022-09-25T23:54:19.135Z,100.00
2022-09-25T23:56:48.417Z,100.00
2022-09-25T23:59:17.662Z,100.00
